METAR Data
IDs: Format: Raw Decoded Include TAF

Data at: 0520 UTC 24 Sep 2018

KMIC 240453Z AUTO 14013KT 10SM CLR 18/11 A2993 RMK AO2 SLP131 T01780111
KMIC 240353Z AUTO 14011G19KT 10SM CLR 18/11 A2994 RMK AO2 SLP136 T01830111
KMIC 240253Z AUTO 13007KT 10SM CLR 19/12 A2993 RMK AO2 SLP135 T01890117 53008
KMIC 240153Z 13011KT 10SM CLR 20/12 A2992 RMK AO2 SLP131 T02000117
KMIC 240053Z 12009KT 10SM CLR 21/12 A2992 RMK AO2 SLP131 T02060117
KMIC 232353Z 13009KT 10SM CLR 22/11 A2991 RMK AO2 SLP128 T02220106 10244 20222 56010
KMIC 232253Z 12010KT 10SM CLR 23/11 A2992 RMK AO2 SLP131 T02330111
KMIC 232153Z 13012G19KT 10SM CLR 24/11 A2992 RMK AO2 SLP130 T02440111
KMIC 232053Z 13013G20KT 10SM CLR 24/11 A2994 RMK AO2 SLP138 T02440111 56024
KMIC 231953Z 14012KT 10SM CLR 24/12 A2996 RMK AO2 SLP145 T02390117
KMIC 231853Z 15013G18KT 10SM CLR 23/12 A2998 RMK AO2 SLP150 T02330117
KMIC 231753Z 12007KT 10SM CLR 22/12 A3001 RMK AO2 SLP162 T02220122 10222 20111 58009
KMIC 231653Z 13007KT 100V160 10SM CLR 21/11 A3004 RMK AO2 SLP171 T02060111
KMIC 231553Z 16009KT 10SM CLR 19/11 A3004 RMK AO2 SLP173 T01890111
KMIC 231453Z 18006KT 10SM CLR 17/11 A3004 RMK AO2 SLP173 T01670106 53002
KMIC 231353Z 16008KT 10SM CLR 14/10 A3003 RMK AO2 SLP169 T01440100
KMIC 231253Z 16007KT 10SM CLR 12/09 A3003 RMK AO2 SLP168 T01220094
KMIC 231153Z 16006KT 10SM CLR 11/09 A3004 RMK AO2 SLP173 T01110089 10133 20106 53001
KMIC 231053Z AUTO 16006KT 10SM CLR 11/09 A3003 RMK AO2 SLP171 T01110089
KMIC 230953Z AUTO 16004KT 10SM CLR 11/08 A3003 RMK AO2 SLP169 T01110083
KMIC 230853Z AUTO 17004KT 10SM CLR 12/08 A3003 RMK AO2 SLP171 T01170083 58005
KMIC 230753Z AUTO 16005KT 10SM CLR 12/08 A3004 RMK AO2 SLP173 T01170083
KMIC 230653Z AUTO 15004KT 10SM CLR 12/08 A3005 RMK AO2 SLP176 T01220083
KMIC 230553Z AUTO 16003KT 10SM BKN100 13/08 A3005 RMK AO2 SLP177 T01330078 10172 20128 401940050 50004
KMIC 230453Z AUTO 16006KT 10SM OVC100 14/08 A3006 RMK AO2 SLP178 T01390083
KMIC 230353Z AUTO 17005KT 10SM CLR 14/08 A3005 RMK AO2 SLP177 T01440083
KMIC 230253Z 17008KT 10SM CLR 15/08 A3004 RMK AO2 SLP173 T01500083 55003
KMIC 230153Z 17008KT 10SM CLR 16/08 A3003 RMK AO2 SLP171 T01610083
KMIC 230053Z 16009KT 10SM CLR 16/08 A3003 RMK AO2 SLP171 T01610083
KMIC 222353Z 16008KT 10SM CLR 17/08 A3005 RMK AO2 SLP178 T01670083 10194 20161 56016
KMIC 222253Z 17008KT 10SM CLR 19/08 A3006 RMK AO2 SLP180 T01890083
KMIC 222153Z 17012KT 10SM CLR 19/08 A3008 RMK AO2 SLP188 T01890078
KMIC 222053Z 16010KT 10SM CLR 19/07 A3010 RMK AO2 SLP194 T01890072 56034
KMIC 221953Z 19012G21KT 10SM CLR 18/07 A3013 RMK AO2 SLP205 T01780067
KMIC 221853Z 18014G20KT 10SM CLR 17/06 A3016 RMK AO2 SLP216 T01720061
KMIC 221753Z 18010KT 10SM CLR 16/05 A3020 RMK AO2 SLP229 T01610050 10161 20061 58024